Homerville, Ohio
Current Conditions -  °F | °C
As of 8:21 PM on Tuesday 27 Jan 2015 (Local Time) from KBJJ Reporting Station
Broken Clouds Broken Clouds  
Wind Chill: -2°   Ceiling: 1600
Heat Index:   Visibility: 10mi
Dew Point:   Wind: 6mph
Humidity: 83%   Direction: 340°NNW
Pressure: 30.14"   Gusts: NA
Location:  41.03°N, 82.13°W
Report Text: KBJJ 280121Z AUTO 34005KT 10SM BKN016 M13/M16 A3014 RMK AO2 T11331156 TSNO
Loading
Personal Weather Stations






























Interactive Weather Map New forecast layout! Learn more

10-Day Weather Forecast

Advertisements
Track Severe Weather on mobile